Time;durP1;ratioP1;P1;durP2;ratioP2;P2;SDS_P1;SDS_P2;PMS_P1;PMS_P2;Temp;Humidity;BMP_temperature;BMP_pressure;BME280_temperature;BME280_humidity;BME280_pressure;Samples;Min_cycle;Max_cycle;Signal;HPM_P1;HPM_P2
2024/01/06 00:01:53;;;;;;;45.30;21.00;;;;;;;;;;5067413;28;20708;-74
2024/01/06 00:04:19;;;;;;;48.77;20.50;;;;;;;;;;5070522;28;20172;-73
2024/01/06 00:06:45;;;;;;;43.83;19.53;;;;;;;;;;5066322;28;20213;-72
2024/01/06 00:09:11;;;;;;;39.90;19.43;;;;;;;;;;5065590;28;20206;-73
2024/01/06 00:11:37;;;;;;;46.37;20.03;;;;;;;;;;5070789;28;20293;-73
2024/01/06 00:14:03;;;;;;;41.10;20.13;;;;;;;;;;5067993;28;20994;-73
2024/01/06 00:16:29;;;;;;;45.27;20.27;;;;;;;;;;5066677;28;20199;-73
2024/01/06 00:18:55;;;;;;;36.87;18.93;;;;;;;;;;5066224;28;20745;-72
2024/01/06 00:21:21;;;;;;;44.10;19.77;;;;;;;;;;5068105;28;20208;-73
2024/01/06 00:23:47;;;;;;;45.43;21.63;;;;;;;;;;5064885;28;20580;-73
2024/01/06 00:26:13;;;;;;;41.40;17.60;;;;;;;;;;5070454;28;20203;-73
2024/01/06 00:28:39;;;;;;;38.30;18.23;;;;;;;;;;5068878;28;20172;-71
2024/01/06 00:31:06;;;;;;;44.50;18.90;;;;;;;;;;5070528;28;20644;-72
2024/01/06 00:33:32;;;;;;;42.60;19.77;;;;;;;;;;5071148;28;20212;-73
2024/01/06 00:35:58;;;;;;;41.13;18.60;;;;;;;;;;5070531;28;20300;-71
2024/01/06 00:38:24;;;;;;;51.83;19.90;;;;;;;;;;5072348;28;20225;-73
2024/01/06 00:40:50;;;;;;;38.07;19.60;;;;;;;;;;5069163;28;20198;-70
2024/01/06 00:43:16;;;;;;;44.97;21.03;;;;;;;;;;5065193;28;20597;-73
2024/01/06 00:45:42;;;;;;;38.20;16.93;;;;;;;;;;5067878;28;20216;-73
2024/01/06 00:48:08;;;;;;;43.20;20.43;;;;;;;;;;5072927;28;20208;-73
2024/01/06 00:50:33;;;;;;;48.80;19.57;;;;;;;;;;5070866;28;20293;-74
2024/01/06 00:52:59;;;;;;;37.53;18.47;;;;;;;;;;5066725;28;20406;-71
2024/01/06 00:55:26;;;;;;;45.67;19.33;;;;;;;;;;5070214;28;20175;-72
2024/01/06 00:57:52;;;;;;;43.33;19.03;;;;;;;;;;5072974;28;20207;-72
2024/01/06 01:00:18;;;;;;;41.03;18.07;;;;;;;;;;5070340;28;20231;-73
2024/01/06 01:02:44;;;;;;;41.67;18.43;;;;;;;;;;5069561;28;20225;-74
2024/01/06 01:05:10;;;;;;;38.13;17.10;;;;;;;;;;5054947;28;20207;-71
2024/01/06 01:07:36;;;;;;;39.23;17.50;;;;;;;;;;5070893;28;20179;-72
2024/01/06 01:10:02;;;;;;;33.43;17.33;;;;;;;;;;5067555;28;20238;-72
2024/01/06 01:12:28;;;;;;;36.00;17.80;;;;;;;;;;5065085;28;20211;-73
2024/01/06 01:14:54;;;;;;;34.23;17.03;;;;;;;;;;5070109;28;20234;-73
2024/01/06 01:17:20;;;;;;;41.07;18.57;;;;;;;;;;5064530;28;20219;-72
2024/01/06 01:19:46;;;;;;;37.57;17.30;;;;;;;;;;5065963;28;20202;-73
2024/01/06 01:22:13;;;;;;;39.33;19.67;;;;;;;;;;5069875;28;20207;-73
2024/01/06 01:24:39;;;;;;;38.57;17.50;;;;;;;;;;5070749;28;20217;-72
2024/01/06 01:27:05;;;;;;;36.13;17.43;;;;;;;;;;5070922;28;20217;-75
2024/01/06 01:29:31;;;;;;;40.97;18.23;;;;;;;;;;5066269;28;20208;-73
2024/01/06 01:31:57;;;;;;;37.33;18.93;;;;;;;;;;5070861;28;20803;-73
2024/01/06 01:34:23;;;;;;;33.27;16.87;;;;;;;;;;5062647;28;20179;-72
2024/01/06 01:36:49;;;;;;;35.27;16.10;;;;;;;;;;5066885;28;20231;-72
2024/01/06 01:39:15;;;;;;;44.10;17.10;;;;;;;;;;5066535;28;20325;-73
2024/01/06 01:41:42;;;;;;;37.67;17.97;;;;;;;;;;5068878;28;20843;-73
2024/01/06 01:44:08;;;;;;;32.57;16.93;;;;;;;;;;5067550;28;20227;-73
2024/01/06 01:46:34;;;;;;;37.60;17.57;;;;;;;;;;5069468;28;20217;-73
2024/01/06 01:49:01;;;;;;;39.90;17.47;;;;;;;;;;5063308;28;20219;-70
2024/01/06 01:51:28;;;;;;;36.10;16.93;;;;;;;;;;5068257;28;20218;-73
2024/01/06 01:53:54;;;;;;;39.30;16.97;;;;;;;;;;5067084;28;20203;-73
2024/01/06 01:56:20;;;;;;;35.73;16.17;;;;;;;;;;5066068;28;20303;-71
2024/01/06 01:58:47;;;;;;;45.13;18.03;;;;;;;;;;5067171;28;20871;-73
2024/01/06 02:01:13;;;;;;;34.47;16.43;;;;;;;;;;5066698;28;20194;-73
2024/01/06 02:03:43;;;;;;;33.47;15.67;;;;;;;;;;5064761;28;20221;-72
2024/01/06 02:06:09;;;;;;;37.03;16.60;;;;;;;;;;5066641;28;20294;-73
2024/01/06 02:08:35;;;;;;;31.17;13.97;;;;;;;;;;5066815;28;20218;-74
2024/01/06 02:11:01;;;;;;;33.70;14.17;;;;;;;;;;5067717;28;20285;-73
2024/01/06 02:13:37;;;;;;;37.83;17.13;;;;;;;;;;5068984;28;20185;-73
2024/01/06 02:16:04;;;;;;;37.60;15.43;;;;;;;;;;5063033;28;20214;-73
2024/01/06 02:18:31;;;;;;;31.73;15.80;;;;;;;;;;5068052;28;20681;-73
2024/01/06 02:21:00;;;;;;;30.50;15.50;;;;;;;;;;5066039;28;20297;-73
2024/01/06 02:23:26;;;;;;;36.00;17.27;;;;;;;;;;5065110;28;20308;-73
2024/01/06 02:25:52;;;;;;;36.00;15.87;;;;;;;;;;5068997;28;20661;-73
2024/01/06 02:28:18;;;;;;;30.27;16.20;;;;;;;;;;5068654;28;20187;-73
2024/01/06 02:30:44;;;;;;;32.03;15.17;;;;;;;;;;5068619;28;20638;-74
2024/01/06 02:33:10;;;;;;;35.63;15.60;;;;;;;;;;5068829;28;20215;-73
2024/01/06 02:35:36;;;;;;;35.30;16.23;;;;;;;;;;5068222;28;20854;-73
2024/01/06 02:38:03;;;;;;;27.20;13.43;;;;;;;;;;5067143;28;20207;-73
2024/01/06 02:40:29;;;;;;;32.60;13.97;;;;;;;;;;5065089;28;20201;-71
2024/01/06 02:42:55;;;;;;;31.93;14.00;;;;;;;;;;5068944;28;20211;-72
2024/01/06 02:45:21;;;;;;;32.33;15.37;;;;;;;;;;5062774;28;20295;-73
2024/01/06 02:47:47;;;;;;;34.70;16.10;;;;;;;;;;5066386;28;20229;-73
2024/01/06 02:50:13;;;;;;;38.67;16.50;;;;;;;;;;5066272;28;20850;-73
2024/01/06 02:52:39;;;;;;;43.87;17.47;;;;;;;;;;5065962;28;20186;-72
2024/01/06 02:55:05;;;;;;;38.20;15.90;;;;;;;;;;5063747;28;20215;-73
2024/01/06 02:57:31;;;;;;;37.40;16.03;;;;;;;;;;5061235;28;20215;-73
2024/01/06 02:59:57;;;;;;;38.43;16.20;;;;;;;;;;5066617;28;20785;-76
2024/01/06 03:02:23;;;;;;;36.87;15.27;;;;;;;;;;5067909;28;20219;-73
2024/01/06 03:04:50;;;;;;;33.23;16.17;;;;;;;;;;5065136;28;20187;-72
2024/01/06 03:07:16;;;;;;;32.40;15.67;;;;;;;;;;5068021;28;20183;-72
2024/01/06 03:09:42;;;;;;;30.80;14.70;;;;;;;;;;5060937;28;20210;-72
2024/01/06 03:12:08;;;;;;;37.37;16.20;;;;;;;;;;5059257;28;20226;-73
2024/01/06 03:14:37;;;;;;;34.30;15.10;;;;;;;;;;5066216;28;20210;-73
2024/01/06 03:17:03;;;;;;;31.00;15.27;;;;;;;;;;5059520;28;20247;-73
2024/01/06 03:19:29;;;;;;;36.17;14.97;;;;;;;;;;5068113;28;20199;-72
2024/01/06 03:21:55;;;;;;;36.20;15.50;;;;;;;;;;5066567;28;20210;-73
2024/01/06 03:24:21;;;;;;;30.97;14.20;;;;;;;;;;5066350;28;20299;-73
2024/01/06 03:26:47;;;;;;;36.53;15.60;;;;;;;;;;5066808;28;20210;-73
2024/01/06 03:29:13;;;;;;;36.77;16.03;;;;;;;;;;5067268;28;20276;-74
2024/01/06 03:31:43;;;;;;;31.63;15.10;;;;;;;;;;5062731;28;20191;-73
2024/01/06 03:34:10;;;;;;;35.83;16.57;;;;;;;;;;5067067;28;20188;-72
2024/01/06 03:36:36;;;;;;;30.57;15.67;;;;;;;;;;5060708;28;20215;-74
2024/01/06 03:39:02;;;;;;;36.40;15.93;;;;;;;;;;5066786;28;20709;-73
2024/01/06 03:41:28;;;;;;;38.25;15.65;;;;;;;;;;5063216;28;20210;-72
2024/01/06 03:43:54;;;;;;;33.00;15.60;;;;;;;;;;5060933;28;20297;-72
2024/01/06 03:46:20;;;;;;;32.63;16.70;;;;;;;;;;5066485;28;20180;-72
2024/01/06 03:48:46;;;;;;;39.33;16.17;;;;;;;;;;5064951;28;20210;-74
2024/01/06 03:51:13;;;;;;;33.97;15.90;;;;;;;;;;5063533;28;20209;-74
2024/01/06 03:53:40;;;;;;;35.40;15.30;;;;;;;;;;5064941;28;20207;-71
2024/01/06 03:56:06;;;;;;;33.20;13.80;;;;;;;;;;5066615;28;20765;-73
2024/01/06 03:58:32;;;;;;;31.10;13.57;;;;;;;;;;5067477;28;20524;-73
2024/01/06 04:00:58;;;;;;;37.40;15.90;;;;;;;;;;5063219;28;20625;-72
2024/01/06 04:03:24;;;;;;;38.10;16.00;;;;;;;;;;5066702;28;20226;-72
2024/01/06 04:05:50;;;;;;;27.53;13.80;;;;;;;;;;5063588;28;20214;-71
2024/01/06 04:08:16;;;;;;;33.17;14.30;;;;;;;;;;5063478;28;20235;-73
2024/01/06 04:10:43;;;;;;;35.43;15.60;;;;;;;;;;5066783;28;20279;-73
2024/01/06 04:13:09;;;;;;;40.53;16.00;;;;;;;;;;5066311;28;20175;-72
2024/01/06 04:15:35;;;;;;;36.50;16.53;;;;;;;;;;5063818;28;20207;-73
2024/01/06 04:18:05;;;;;;;37.70;16.00;;;;;;;;;;5062763;28;20215;-73
2024/01/06 04:20:31;;;;;;;36.03;15.87;;;;;;;;;;5065943;28;20211;-73
2024/01/06 04:22:57;;;;;;;27.60;13.07;;;;;;;;;;5060419;28;21626;-72
2024/01/06 04:25:23;;;;;;;33.97;15.90;;;;;;;;;;5064568;28;20179;-74
2024/01/06 04:27:49;;;;;;;38.33;16.87;;;;;;;;;;5060951;28;20235;-73
2024/01/06 04:30:16;;;;;;;38.97;15.07;;;;;;;;;;5063572;28;20214;-73
2024/01/06 04:32:42;;;;;;;37.83;15.30;;;;;;;;;;5065397;28;20689;-73
2024/01/06 04:35:09;;;;;;;30.13;15.23;;;;;;;;;;5062181;28;20827;-73
2024/01/06 04:37:35;;;;;;;38.73;17.43;;;;;;;;;;5064535;28;20237;-74
2024/01/06 04:40:01;;;;;;;37.97;15.93;;;;;;;;;;5066631;28;20239;-74
2024/01/06 04:42:27;;;;;;;35.60;15.13;;;;;;;;;;5063611;28;20252;-74
2024/01/06 04:44:53;;;;;;;36.53;17.33;;;;;;;;;;5066165;28;21588;-74
2024/01/06 04:47:19;;;;;;;38.63;15.93;;;;;;;;;;5069915;28;20238;-72
2024/01/06 04:49:45;;;;;;;35.40;15.83;;;;;;;;;;5068114;28;20233;-74
2024/01/06 04:52:11;;;;;;;37.83;17.23;;;;;;;;;;5067653;28;20651;-73
2024/01/06 04:54:37;;;;;;;36.60;16.13;;;;;;;;;;5066258;28;20228;-74
2024/01/06 04:57:04;;;;;;;39.80;16.30;;;;;;;;;;5068073;28;20234;-73
2024/01/06 04:59:30;;;;;;;29.30;13.40;;;;;;;;;;5066414;28;20265;-73
2024/01/06 05:01:56;;;;;;;37.97;17.97;;;;;;;;;;5065932;28;20248;-74
2024/01/06 05:04:22;;;;;;;33.53;16.30;;;;;;;;;;5069296;28;20202;-73
2024/01/06 05:06:49;;;;;;;34.70;16.33;;;;;;;;;;5068151;28;20234;-74
2024/01/06 05:09:15;;;;;;;33.77;13.93;;;;;;;;;;5067951;28;20700;-73
2024/01/06 05:11:43;;;;;;;28.33;15.03;;;;;;;;;;5069123;28;20206;-73
2024/01/06 05:14:09;;;;;;;38.27;16.97;;;;;;;;;;5060071;28;20233;-73
2024/01/06 05:16:35;;;;;;;42.63;16.57;;;;;;;;;;5061912;28;20277;-73
2024/01/06 05:19:02;;;;;;;32.53;15.63;;;;;;;;;;5067912;28;20215;-73
2024/01/06 05:21:28;;;;;;;36.13;16.10;;;;;;;;;;5064286;28;20285;-74
2024/01/06 05:23:54;;;;;;;44.07;17.07;;;;;;;;;;5065212;28;20355;-74
2024/01/06 05:26:20;;;;;;;33.90;14.57;;;;;;;;;;5069036;28;20714;-73
2024/01/06 05:28:46;;;;;;;39.80;17.60;;;;;;;;;;5063887;28;20167;-73
2024/01/06 05:31:12;;;;;;;41.90;16.43;;;;;;;;;;5068657;28;20195;-74
2024/01/06 05:33:38;;;;;;;33.00;16.17;;;;;;;;;;5069941;28;20584;-73
2024/01/06 05:36:04;;;;;;;38.67;15.27;;;;;;;;;;5067053;28;20203;-74
2024/01/06 05:38:30;;;;;;;49.37;18.83;;;;;;;;;;5067463;28;20245;-74
2024/01/06 05:40:56;;;;;;;42.93;16.80;;;;;;;;;;5064962;28;20241;-74
2024/01/06 05:43:22;;;;;;;45.50;17.90;;;;;;;;;;5064512;28;20199;-72
2024/01/06 05:45:48;;;;;;;41.87;16.83;;;;;;;;;;5063971;28;20207;-73
2024/01/06 05:48:14;;;;;;;41.83;17.50;;;;;;;;;;5067676;28;20750;-74
2024/01/06 05:50:41;;;;;;;48.57;19.60;;;;;;;;;;5065636;28;20264;-75
2024/01/06 05:53:07;;;;;;;45.57;18.70;;;;;;;;;;5065453;28;20211;-74
2024/01/06 05:55:33;;;;;;;43.47;17.37;;;;;;;;;;5070492;28;20560;-74
2024/01/06 05:58:00;;;;;;;35.30;17.50;;;;;;;;;;5067549;28;20565;-74
2024/01/06 06:00:26;;;;;;;43.03;15.77;;;;;;;;;;5068758;28;20839;-74
2024/01/06 06:02:52;;;;;;;49.63;17.57;;;;;;;;;;5067099;28;20217;-74
2024/01/06 06:05:20;;;;;;;39.60;16.57;;;;;;;;;;5069148;28;20220;-72
2024/01/06 06:07:46;;;;;;;38.50;15.87;;;;;;;;;;5066668;28;20591;-74
2024/01/06 06:10:12;;;;;;;44.93;17.73;;;;;;;;;;5067330;28;20225;-74
2024/01/06 06:12:38;;;;;;;45.90;19.30;;;;;;;;;;5067419;28;20210;-74
2024/01/06 06:15:05;;;;;;;40.67;18.13;;;;;;;;;;5062293;28;20214;-74
2024/01/06 06:17:31;;;;;;;46.73;17.53;;;;;;;;;;5068223;28;20237;-73
2024/01/06 06:19:58;;;;;;;41.77;17.80;;;;;;;;;;5065313;28;20716;-75
2024/01/06 06:22:26;;;;;;;42.37;17.93;;;;;;;;;;5065742;28;20203;-74
2024/01/06 06:24:52;;;;;;;42.10;17.30;;;;;;;;;;5066773;28;20207;-74
2024/01/06 06:27:18;;;;;;;44.70;17.70;;;;;;;;;;5068295;28;20639;-72
2024/01/06 06:29:44;;;;;;;46.00;17.47;;;;;;;;;;5066970;28;20704;-74
2024/01/06 06:32:10;;;;;;;41.13;17.33;;;;;;;;;;5069175;28;20235;-74
2024/01/06 06:34:36;;;;;;;40.63;16.70;;;;;;;;;;5067826;28;20220;-75
2024/01/06 06:37:03;;;;;;;30.17;14.83;;;;;;;;;;5068331;28;20210;-75
2024/01/06 06:39:31;;;;;;;36.03;16.80;;;;;;;;;;5064815;28;20285;-74
2024/01/06 06:41:57;;;;;;;36.70;16.70;;;;;;;;;;5068798;28;20754;-74
2024/01/06 06:44:23;;;;;;;39.27;15.43;;;;;;;;;;5068889;28;20222;-73
2024/01/06 06:46:49;;;;;;;33.57;15.60;;;;;;;;;;5065128;28;20179;-73
2024/01/06 06:49:15;;;;;;;43.10;18.57;;;;;;;;;;5067583;28;20172;-72
2024/01/06 06:51:46;;;;;;;40.60;16.83;;;;;;;;;;5065777;28;20582;-73
2024/01/06 06:54:12;;;;;;;38.37;16.77;;;;;;;;;;5064623;28;21173;-72
2024/01/06 06:56:38;;;;;;;42.40;17.83;;;;;;;;;;5063030;28;20244;-72
2024/01/06 06:59:05;;;;;;;42.97;15.73;;;;;;;;;;5060061;28;20221;-73
2024/01/06 07:01:31;;;;;;;47.50;18.07;;;;;;;;;;5066552;28;20195;-74
2024/01/06 07:03:57;;;;;;;36.27;15.50;;;;;;;;;;5063980;28;20227;-73
2024/01/06 07:06:23;;;;;;;35.23;15.87;;;;;;;;;;5058491;28;20807;-72
2024/01/06 07:08:49;;;;;;;52.00;18.33;;;;;;;;;;5067543;28;20206;-73
2024/01/06 07:11:18;;;;;;;35.90;15.07;;;;;;;;;;5067464;28;20268;-74
2024/01/06 07:13:44;;;;;;;40.87;16.57;;;;;;;;;;5064061;28;20178;-74
2024/01/06 07:16:11;;;;;;;36.50;15.30;;;;;;;;;;5065880;28;20207;-73
2024/01/06 07:18:37;;;;;;;43.30;17.97;;;;;;;;;;5063273;28;20281;-73
2024/01/06 07:21:06;;;;;;;40.60;16.97;;;;;;;;;;5066609;28;20626;-73
2024/01/06 07:23:32;;;;;;;37.97;16.70;;;;;;;;;;5066712;28;20213;-73
2024/01/06 07:25:58;;;;;;;33.50;13.97;;;;;;;;;;5065418;28;21219;-69
2024/01/06 07:28:24;;;;;;;44.10;16.73;;;;;;;;;;5066068;28;20178;-73
2024/01/06 07:30:50;;;;;;;50.83;15.57;;;;;;;;;;5063812;28;20222;-74
2024/01/06 07:33:16;;;;;;;35.57;13.53;;;;;;;;;;5067359;28;22416;-74
2024/01/06 07:35:43;;;;;;;35.63;17.47;;;;;;;;;;5066746;28;20210;-73
2024/01/06 07:38:12;;;;;;;39.13;15.43;;;;;;;;;;5064875;28;20218;-74
2024/01/06 07:40:38;;;;;;;34.93;14.90;;;;;;;;;;5060930;28;20313;-72
2024/01/06 07:43:05;;;;;;;36.23;13.97;;;;;;;;;;5066356;28;20790;-73
2024/01/06 07:45:31;;;;;;;36.10;16.10;;;;;;;;;;5067508;28;20207;-74
2024/01/06 07:47:58;;;;;;;30.87;12.73;;;;;;;;;;5064230;28;20245;-73
2024/01/06 07:50:24;;;;;;;44.07;14.97;;;;;;;;;;5063246;28;20214;-73
2024/01/06 07:52:50;;;;;;;44.20;17.23;;;;;;;;;;5063310;28;20183;-73
2024/01/06 07:55:16;;;;;;;43.20;17.20;;;;;;;;;;5066135;28;20194;-74
2024/01/06 07:57:43;;;;;;;41.53;15.93;;;;;;;;;;5065382;28;20234;-75
2024/01/06 08:00:10;;;;;;;43.70;17.27;;;;;;;;;;5063400;28;20310;-76
2024/01/06 08:02:36;;;;;;;40.30;15.87;;;;;;;;;;5065649;28;20222;-72
2024/01/06 08:05:02;;;;;;;34.43;14.83;;;;;;;;;;5065669;28;20227;-73
2024/01/06 08:07:28;;;;;;;41.17;16.43;;;;;;;;;;5067393;28;20205;-73
2024/01/06 08:09:54;;;;;;;37.27;16.30;;;;;;;;;;5067864;28;20213;-77
2024/01/06 08:12:20;;;;;;;45.07;18.80;;;;;;;;;;5063785;28;20612;-75
2024/01/06 08:14:46;;;;;;;41.47;17.40;;;;;;;;;;5065875;28;20215;-76
2024/01/06 08:17:12;;;;;;;40.43;15.43;;;;;;;;;;5067643;28;20218;-74
2024/01/06 08:19:38;;;;;;;34.43;15.93;;;;;;;;;;5067570;28;20198;-74
2024/01/06 08:22:04;;;;;;;32.67;14.23;;;;;;;;;;5069957;28;20868;-75
2024/01/06 08:24:30;;;;;;;39.20;15.77;;;;;;;;;;5071544;28;20215;-74
2024/01/06 08:26:57;;;;;;;43.03;17.03;;;;;;;;;;5071224;28;20234;-76
2024/01/06 08:29:23;;;;;;;40.23;17.97;;;;;;;;;;5069045;28;20210;-75
2024/01/06 08:31:51;;;;;;;35.20;14.17;;;;;;;;;;5065754;28;20634;-75
2024/01/06 08:34:17;;;;;;;37.40;13.70;;;;;;;;;;5071337;28;20175;-74
2024/01/06 08:36:43;;;;;;;44.40;16.07;;;;;;;;;;5058348;28;20206;-74
2024/01/06 08:39:09;;;;;;;41.33;15.17;;;;;;;;;;5068863;28;20739;-75
2024/01/06 08:41:35;;;;;;;41.37;16.60;;;;;;;;;;5065844;28;20236;-75
2024/01/06 08:44:01;;;;;;;39.17;16.80;;;;;;;;;;5066791;28;20226;-75
2024/01/06 08:46:27;;;;;;;37.37;14.83;;;;;;;;;;5069423;28;20185;-74
2024/01/06 08:48:53;;;;;;;40.80;16.23;;;;;;;;;;5067672;28;20234;-75
2024/01/06 08:51:20;;;;;;;49.87;18.70;;;;;;;;;;5068490;28;20234;-75
2024/01/06 08:53:46;;;;;;;40.63;15.80;;;;;;;;;;5069446;28;20231;-76
2024/01/06 08:56:12;;;;;;;44.83;17.43;;;;;;;;;;5067105;28;20267;-75
2024/01/06 08:58:38;;;;;;;54.33;18.60;;;;;;;;;;5070642;28;20183;-73
2024/01/06 09:01:04;;;;;;;41.03;16.20;;;;;;;;;;5069234;28;20201;-77
2024/01/06 09:03:30;;;;;;;39.10;16.33;;;;;;;;;;5065550;28;20313;-75
2024/01/06 09:05:57;;;;;;;45.07;18.30;;;;;;;;;;5069585;28;20243;-75
2024/01/06 09:08:26;;;;;;;41.70;17.93;;;;;;;;;;5064347;28;20583;-75
2024/01/06 09:10:55;;;;;;;36.50;16.87;;;;;;;;;;5064849;28;20199;-76
2024/01/06 09:13:21;;;;;;;41.03;17.27;;;;;;;;;;5068874;28;20217;-75
2024/01/06 09:15:47;;;;;;;36.73;16.00;;;;;;;;;;5064253;28;20225;-74
2024/01/06 09:18:13;;;;;;;36.57;15.37;;;;;;;;;;5068018;28;20218;-75
2024/01/06 09:20:39;;;;;;;38.73;15.23;;;;;;;;;;5068807;28;20258;-75
2024/01/06 09:23:06;;;;;;;43.87;14.37;;;;;;;;;;5067143;28;20222;-76
2024/01/06 09:25:32;;;;;;;38.50;17.03;;;;;;;;;;5066159;28;20543;-75
2024/01/06 09:27:59;;;;;;;35.53;16.17;;;;;;;;;;5071223;28;20701;-75
2024/01/06 09:30:25;;;;;;;34.73;15.67;;;;;;;;;;5065183;28;20214;-76
2024/01/06 09:32:51;;;;;;;34.90;15.37;;;;;;;;;;5070078;28;20231;-77
2024/01/06 09:35:17;;;;;;;39.07;16.30;;;;;;;;;;5067475;28;20215;-76
2024/01/06 09:37:43;;;;;;;38.10;15.53;;;;;;;;;;5068891;28;20765;-76
2024/01/06 09:40:13;;;;;;;37.60;16.67;;;;;;;;;;5071056;28;20193;-74
2024/01/06 09:42:39;;;;;;;38.37;16.50;;;;;;;;;;5069323;28;20232;-75
2024/01/06 09:45:05;;;;;;;42.30;17.97;;;;;;;;;;5067375;28;20210;-77
2024/01/06 09:47:34;;;;;;;35.83;14.53;;;;;;;;;;5069507;28;20370;-75
2024/01/06 09:50:01;;;;;;;40.97;15.73;;;;;;;;;;5065278;28;20222;-76
2024/01/06 09:52:27;;;;;;;34.47;15.20;;;;;;;;;;5068857;28;20183;-75
2024/01/06 09:54:55;;;;;;;34.20;13.77;;;;;;;;;;5072077;28;20208;-77
2024/01/06 09:57:21;;;;;;;35.73;15.93;;;;;;;;;;5072429;28;20597;-77
2024/01/06 09:59:47;;;;;;;37.53;16.23;;;;;;;;;;5075516;28;20211;-75
2024/01/06 10:02:16;;;;;;;35.20;16.23;;;;;;;;;;5073819;28;20244;-77
2024/01/06 10:04:42;;;;;;;30.67;13.87;;;;;;;;;;5064205;28;20230;-77
2024/01/06 10:07:08;;;;;;;33.33;14.37;;;;;;;;;;5075469;28;20176;-73
2024/01/06 10:09:34;;;;;;;36.83;14.47;;;;;;;;;;5054173;28;20665;-79
2024/01/06 10:12:00;;;;;;;34.67;15.90;;;;;;;;;;5071346;28;20213;-78
2024/01/06 10:14:26;;;;;;;42.83;17.23;;;;;;;;;;5073835;28;20218;-78
2024/01/06 10:16:53;;;;;;;32.30;15.70;;;;;;;;;;5074440;28;20214;-80
2024/01/06 10:19:19;;;;;;;41.37;16.00;;;;;;;;;;5074274;28;20246;-78
2024/01/06 10:21:45;;;;;;;42.00;17.80;;;;;;;;;;5070129;28;20279;-79
2024/01/06 10:24:11;;;;;;;38.07;16.10;;;;;;;;;;5068616;28;20213;-79
2024/01/06 10:26:38;;;;;;;34.23;15.07;;;;;;;;;;5064504;28;20214;-79
2024/01/06 10:29:05;;;;;;;35.00;15.80;;;;;;;;;;5070535;28;20304;-79
2024/01/06 10:31:31;;;;;;;34.53;15.50;;;;;;;;;;5088272;28;20216;-79
2024/01/06 10:33:57;;;;;;;36.43;15.97;;;;;;;;;;5073326;28;20221;-79
2024/01/06 10:36:24;;;;;;;33.87;14.93;;;;;;;;;;5071450;28;20213;-77
2024/01/06 10:38:50;;;;;;;37.87;14.67;;;;;;;;;;5082557;28;20199;-77
2024/01/06 10:41:17;;;;;;;37.57;15.60;;;;;;;;;;5052586;28;20215;-78
2024/01/06 10:43:43;;;;;;;32.70;15.43;;;;;;;;;;5072170;28;20202;-78
2024/01/06 10:46:10;;;;;;;35.70;13.60;;;;;;;;;;5057001;28;20190;-78
2024/01/06 10:48:42;;;;;;;28.73;11.80;;;;;;;;;;5072130;28;20296;-78
2024/01/06 10:51:09;;;;;;;29.60;14.07;;;;;;;;;;5069467;28;20330;-75
2024/01/06 10:53:39;;;;;;;31.03;14.83;;;;;;;;;;5068076;28;20201;-76
2024/01/06 10:56:09;;;;;;;30.20;13.80;;;;;;;;;;5069176;28;20679;-76
2024/01/06 10:58:42;;;;;;;32.77;15.43;;;;;;;;;;5057151;28;20181;-73
2024/01/06 11:01:08;;;;;;;32.40;14.93;;;;;;;;;;5045779;28;20210;-74
2024/01/06 11:03:37;;;;;;;32.33;14.27;;;;;;;;;;5063760;28;20348;-75
2024/01/06 11:06:03;;;;;;;32.27;12.93;;;;;;;;;;5066062;28;20222;-76
2024/01/06 11:08:30;;;;;;;37.43;14.63;;;;;;;;;;5066409;28;20592;-75
2024/01/06 11:10:56;;;;;;;34.53;15.20;;;;;;;;;;5065010;28;20199;-77
2024/01/06 11:13:23;;;;;;;25.87;12.90;;;;;;;;;;5064538;28;20210;-75
2024/01/06 11:15:51;;;;;;;27.87;14.13;;;;;;;;;;5063657;28;20216;-75
2024/01/06 11:18:38;;;;;;;28.40;13.73;;;;;;;;;;5064123;28;20220;-74
2024/01/06 11:21:21;;;;;;;31.40;14.90;;;;;;;;;;5064893;28;20739;-78
2024/01/06 11:24:04;;;;;;;25.93;13.00;;;;;;;;;;5064800;28;20260;-75
2024/01/06 11:26:30;;;;;;;34.13;14.53;;;;;;;;;;5058053;28;20591;-77
2024/01/06 11:28:58;;;;;;;31.70;14.20;;;;;;;;;;5064838;28;20193;-77
2024/01/06 11:31:24;;;;;;;28.67;12.37;;;;;;;;;;5066639;28;20202;-76
2024/01/06 11:33:51;;;;;;;29.73;13.90;;;;;;;;;;5066139;28;20210;-77
2024/01/06 11:36:17;;;;;;;34.37;14.83;;;;;;;;;;5065718;28;20889;-76
2024/01/06 11:38:50;;;;;;;25.30;13.83;;;;;;;;;;5062686;28;20229;-77
2024/01/06 11:41:36;;;;;;;26.57;12.97;;;;;;;;;;5064857;28;20221;-78
2024/01/06 11:44:02;;;;;;;27.93;13.67;;;;;;;;;;5065017;28;20308;-77
2024/01/06 11:46:28;;;;;;;35.23;13.50;;;;;;;;;;5058878;28;20274;-75
2024/01/06 11:48:55;;;;;;;29.47;13.13;;;;;;;;;;5066982;28;20265;-77
2024/01/06 11:51:20;;;;;;;27.30;12.13;;;;;;;;;;5064658;28;20219;-77
2024/01/06 11:53:47;;;;;;;29.33;13.63;;;;;;;;;;5066318;28;20983;-77
2024/01/06 11:56:13;;;;;;;27.33;12.67;;;;;;;;;;5062182;28;20769;-78
2024/01/06 11:58:42;;;;;;;28.20;12.30;;;;;;;;;;5065072;28;20188;-78
2024/01/06 12:01:08;;;;;;;28.30;13.10;;;;;;;;;;5065982;28;20206;-77
2024/01/06 12:03:34;;;;;;;30.27;13.50;;;;;;;;;;5062212;28;20214;-77
2024/01/06 12:06:04;;;;;;;28.27;12.97;;;;;;;;;;5064064;28;20257;-77
2024/01/06 12:08:30;;;;;;;29.20;13.73;;;;;;;;;;5062721;28;20213;-78
2024/01/06 12:11:03;;;;;;;30.23;14.73;;;;;;;;;;5061763;28;20206;-75
2024/01/06 12:13:29;;;;;;;87.33;37.93;;;;;;;;;;5059978;28;20273;-77
2024/01/06 12:15:56;;;;;;;47.60;20.90;;;;;;;;;;5064332;28;20255;-76
2024/01/06 12:18:24;;;;;;;29.97;16.00;;;;;;;;;;5065472;28;20229;-77
2024/01/06 12:20:50;;;;;;;33.20;14.70;;;;;;;;;;5061551;28;20214;-76
2024/01/06 12:23:36;;;;;;;34.80;14.80;;;;;;;;;;5065227;28;20234;-78
2024/01/06 12:26:02;;;;;;;34.07;14.83;;;;;;;;;;5062512;28;20220;-78
2024/01/06 12:28:28;;;;;;;30.90;14.93;;;;;;;;;;5065351;28;20265;-77
2024/01/06 12:30:55;;;;;;;29.47;13.57;;;;;;;;;;5063470;28;20737;-75
2024/01/06 12:33:21;;;;;;;28.33;13.27;;;;;;;;;;5057100;28;20206;-76
2024/01/06 12:35:47;;;;;;;28.60;14.17;;;;;;;;;;5061756;28;20306;-79
2024/01/06 12:38:13;;;;;;;28.83;13.73;;;;;;;;;;5064869;28;20214;-76
2024/01/06 12:40:39;;;;;;;30.70;16.30;;;;;;;;;;5062768;28;20205;-75
2024/01/06 12:43:06;;;;;;;30.03;14.83;;;;;;;;;;5063238;28;20589;-75
2024/01/06 12:45:32;;;;;;;29.73;13.27;;;;;;;;;;5062119;28;20290;-73
2024/01/06 12:47:58;;;;;;;27.47;13.67;;;;;;;;;;5064571;28;20697;-75
2024/01/06 12:50:24;;;;;;;28.73;13.43;;;;;;;;;;5062456;28;20215;-75
2024/01/06 12:52:50;;;;;;;32.43;13.33;;;;;;;;;;5067991;28;20185;-79
2024/01/06 12:55:16;;;;;;;34.40;14.67;;;;;;;;;;5063659;28;20205;-75
2024/01/06 12:57:43;;;;;;;25.93;14.33;;;;;;;;;;5065458;28;20209;-74
2024/01/06 13:00:11;;;;;;;28.80;14.73;;;;;;;;;;5066013;28;20226;-75
2024/01/06 13:02:37;;;;;;;28.33;13.83;;;;;;;;;;5069395;28;20218;-78
2024/01/06 13:05:04;;;;;;;26.83;13.37;;;;;;;;;;5076196;28;20203;-79
2024/01/06 13:07:30;;;;;;;30.53;14.93;;;;;;;;;;5071328;28;20213;-77
2024/01/06 13:09:56;;;;;;;26.43;14.07;;;;;;;;;;5070273;28;20211;-76
2024/01/06 13:12:23;;;;;;;23.27;10.27;;;;;;;;;;5064272;28;20219;-74
2024/01/06 13:14:50;;;;;;;28.17;12.57;;;;;;;;;;5071218;28;20211;-81
2024/01/06 13:17:16;;;;;;;32.93;13.47;;;;;;;;;;5070908;28;20258;-80
2024/01/06 13:19:42;;;;;;;26.23;13.73;;;;;;;;;;5074014;28;20201;-81
2024/01/06 13:22:08;;;;;;;29.70;14.40;;;;;;;;;;5076124;28;20263;-82
2024/01/06 13:24:34;;;;;;;26.53;13.00;;;;;;;;;;5075585;28;20589;-81
2024/01/06 13:27:02;;;;;;;24.07;12.67;;;;;;;;;;5075963;28;20682;-82
2024/01/06 13:29:28;;;;;;;33.97;14.33;;;;;;;;;;5075215;28;20225;-81
2024/01/06 13:31:54;;;;;;;30.67;14.10;;;;;;;;;;5069048;28;20181;-78
2024/01/06 13:34:21;;;;;;;30.77;13.90;;;;;;;;;;5068282;28;20659;-78
2024/01/06 13:36:47;;;;;;;25.73;12.67;;;;;;;;;;5067284;28;20221;-76
2024/01/06 13:39:20;;;;;;;32.47;12.97;;;;;;;;;;5071170;28;20212;-76
2024/01/06 13:41:47;;;;;;;25.60;12.50;;;;;;;;;;5070538;28;20203;-77
2024/01/06 13:44:13;;;;;;;26.13;11.73;;;;;;;;;;5071937;28;20228;-77
2024/01/06 13:46:43;;;;;;;24.17;10.80;;;;;;;;;;5071531;28;20197;-78
2024/01/06 13:49:09;;;;;;;27.53;11.80;;;;;;;;;;5048813;28;20175;-75
2024/01/06 13:51:35;;;;;;;24.03;11.07;;;;;;;;;;5071460;28;20578;-73
2024/01/06 13:54:01;;;;;;;24.93;12.63;;;;;;;;;;5066363;28;20224;-73
2024/01/06 13:56:27;;;;;;;21.37;10.67;;;;;;;;;;5065933;28;20240;-72
2024/01/06 13:58:53;;;;;;;21.20;10.60;;;;;;;;;;5065268;28;20264;-74
2024/01/06 14:01:19;;;;;;;26.53;11.50;;;;;;;;;;5069067;28;20289;-77
2024/01/06 14:03:45;;;;;;;26.90;12.00;;;;;;;;;;5060603;28;20237;-72
2024/01/06 14:06:12;;;;;;;25.53;11.50;;;;;;;;;;5063414;28;20278;-73
2024/01/06 14:08:39;;;;;;;22.37;9.87;;;;;;;;;;5065523;28;20202;-77
2024/01/06 14:11:05;;;;;;;22.30;12.13;;;;;;;;;;5064394;28;20237;-74
2024/01/06 14:13:31;;;;;;;23.57;11.50;;;;;;;;;;5064666;28;20183;-76